Time;durP1;ratioP1;P1;durP2;ratioP2;P2;SDS_P1;SDS_P2;PMS_P1;PMS_P2;Temp;Humidity;BMP_temperature;BMP_pressure;BME280_temperature;BME280_humidity;BME280_pressure;Samples;Min_cycle;Max_cycle;Signal;HPM_P1;HPM_P2
2022/04/17 00:01:02;;;;;;;;;5.50;3.50;;;;;-146.67;100.00;57155.34;5071239;27;62258;-78
2022/04/17 00:03:29;;;;;;;;;4.00;4.00;;;;;-146.67;100.00;57155.34;5079088;28;62868;-78
2022/04/17 00:05:54;;;;;;;;;4.00;4.00;;;;;-146.67;100.00;57155.34;5082435;27;62006;-78
2022/04/17 00:08:20;;;;;;;;;3.50;3.00;;;;;-146.67;100.00;57155.34;5083076;27;61822;-77
2022/04/17 00:10:46;;;;;;;;;2.75;2.75;;;;;-146.67;100.00;57155.34;5082538;27;61877;-78
2022/04/17 00:13:12;;;;;;;;;7.50;5.00;;;;;-146.67;100.00;57155.34;5097935;27;65000;-78
2022/04/17 00:15:37;;;;;;;;;4.25;4.00;;;;;-146.67;100.00;57155.34;5083430;27;61774;-79
2022/04/17 00:18:03;;;;;;;;;6.50;5.25;;;;;-146.67;100.00;57155.34;5083292;27;62093;-79
2022/04/17 00:20:28;;;;;;;;;3.25;3.00;;;;;-146.67;100.00;57155.34;5099361;27;61732;-79
2022/04/17 00:22:54;;;;;;;;;4.75;3.25;;;;;-146.67;100.00;57155.34;5082682;27;62823;-79
2022/04/17 00:25:19;;;;;;;;;4.00;4.00;;;;;-146.67;100.00;57155.34;5082962;27;61666;-79
2022/04/17 00:27:45;;;;;;;;;3.50;3.50;;;;;-146.67;100.00;57155.34;5083417;27;61925;-79
2022/04/17 00:30:11;;;;;;;;;4.00;4.00;;;;;-146.67;100.00;57155.34;5083311;27;62053;-79
2022/04/17 00:32:37;;;;;;;;;3.75;3.25;;;;;-146.67;100.00;57155.34;5098262;27;65059;-79
2022/04/17 00:35:05;;;;;;;;;4.75;4.25;;;;;-146.67;100.00;57155.34;5098647;27;61993;-79
2022/04/17 00:37:30;;;;;;;;;4.75;3.50;;;;;-146.67;100.00;57155.34;5083256;27;61913;-79
2022/04/17 00:39:55;;;;;;;;;4.75;2.50;;;;;-146.67;100.00;57155.34;5080082;27;61925;-79
2022/04/17 00:42:21;;;;;;;;;3.75;2.75;;;;;-146.67;100.00;57155.34;5080918;28;64858;-79
2022/04/17 00:44:46;;;;;;;;;4.00;4.00;;;;;-146.67;100.00;57155.34;5067075;28;61722;-79
2022/04/17 00:47:15;;;;;;;;;4.50;3.50;;;;;-146.67;100.00;57155.34;5069517;28;61759;-79
2022/04/17 00:49:42;;;;;;;;;5.00;4.00;;;;;-146.67;100.00;57155.34;5083308;28;61861;-79
2022/04/17 00:52:08;;;;;;;;;3.75;2.75;;;;;-146.67;100.00;57155.34;5065287;28;62478;-79
2022/04/17 00:54:37;;;;;;;;;5.00;4.00;;;;;-146.67;100.00;57155.34;5077660;28;61883;-79
2022/04/17 00:57:06;;;;;;;;;6.75;4.00;;;;;-146.67;100.00;57155.34;5062464;28;61754;-78
2022/04/17 00:59:32;;;;;;;;;8.00;3.50;;;;;-146.67;100.00;57155.34;5062790;28;62006;-79
2022/04/17 01:01:57;;;;;;;;;4.00;4.00;;;;;-146.67;100.00;57155.34;5061823;28;61746;-79
2022/04/17 01:04:23;;;;;;;;;6.25;2.75;;;;;-146.67;100.00;57155.34;5060502;28;61814;-78
2022/04/17 01:06:48;;;;;;;;;6.00;4.00;;;;;-146.67;100.00;57155.34;5062559;28;62400;-78
2022/04/17 01:09:15;;;;;;;;;2.50;1.00;;;;;-146.67;100.00;57155.34;5061937;28;61811;-79
2022/04/17 01:11:41;;;;;;;;;5.00;2.75;;;;;-146.67;100.00;57155.34;5060294;28;63604;-78
2022/04/17 01:14:08;;;;;;;;;8.25;5.00;;;;;-146.67;100.00;57155.34;5061904;28;61901;-78
2022/04/17 01:16:36;;;;;;;;;4.00;4.00;;;;;-146.67;100.00;57155.34;5061154;28;61977;-78
2022/04/17 01:19:04;;;;;;;;;5.25;3.75;;;;;-146.67;100.00;57155.34;5061904;28;61820;-78
2022/04/17 01:21:31;;;;;;;;;4.50;4.00;;;;;-146.67;100.00;57155.34;5077124;28;64031;-78
2022/04/17 01:26:58;;;;;;;;;3.50;3.50;;;;;-146.67;100.00;57155.34;5062355;28;61770;-78
2022/04/17 01:29:35;;;;;;;;;6.00;3.75;;;;;-146.67;100.00;57155.34;5077711;28;61834;-78
2022/04/17 01:32:04;;;;;;;;;4.00;4.00;;;;;-146.67;100.00;57155.34;5061434;28;61775;-78
2022/04/17 01:34:30;;;;;;;;;10.50;6.00;;;;;-146.67;100.00;57155.34;5062096;28;62046;-78
2022/04/17 01:36:56;;;;;;;;;16.00;13.25;;;;;-146.67;100.00;57155.34;5062085;28;61985;-78
2022/04/17 01:39:22;;;;;;;;;22.00;17.25;;;;;-146.67;100.00;57155.34;5080147;28;62173;-78
2022/04/17 01:41:49;;;;;;;;;18.50;13.75;;;;;-146.67;100.00;57155.34;5081797;27;61860;-78
2022/04/17 01:44:18;;;;;;;;;47.50;31.50;;;;;-146.67;100.00;57155.34;5081702;27;61817;-78
2022/04/17 01:46:45;;;;;;;;;40.50;26.00;;;;;-146.67;100.00;57155.34;5082135;27;61964;-78
2022/04/17 01:49:11;;;;;;;;;50.50;35.00;;;;;-146.67;100.00;57155.34;5082150;27;61818;-78
2022/04/17 01:51:38;;;;;;;;;52.25;39.00;;;;;-146.67;100.00;57155.34;5081472;28;62110;-78
2022/04/17 01:54:09;;;;;;;;;54.50;39.75;;;;;-146.67;100.00;57155.34;5081602;27;61750;-78
2022/04/17 01:56:36;;;;;;;;;52.25;37.75;;;;;-146.67;100.00;57155.34;5084331;27;62246;-78
2022/04/17 01:59:05;;;;;;;;;43.25;36.75;;;;;-146.67;100.00;57155.34;5084204;28;61855;-78
2022/04/17 02:01:31;;;;;;;;;40.25;34.50;;;;;-146.67;100.00;57155.34;5084875;27;61874;-78
2022/04/17 02:03:57;;;;;;;;;40.75;35.25;;;;;-146.67;100.00;57155.34;5084105;28;61980;-78
2022/04/17 02:06:22;;;;;;;;;36.00;27.50;;;;;-146.67;100.00;57155.34;5084904;27;62527;-78
2022/04/17 02:08:48;;;;;;;;;36.25;27.00;;;;;-146.67;100.00;57155.34;5085097;27;61837;-78
2022/04/17 02:11:13;;;;;;;;;26.50;23.50;;;;;-146.67;100.00;57155.34;5084787;27;62023;-79
2022/04/17 02:13:39;;;;;;;;;18.25;17.50;;;;;-146.67;100.00;57155.34;5085320;28;61842;-79
2022/04/17 02:16:06;;;;;;;;;20.25;16.25;;;;;-146.67;100.00;57155.34;5085344;27;61669;-79
2022/04/17 02:18:32;;;;;;;;;21.00;17.25;;;;;-146.67;100.00;57155.34;5085490;27;62003;-79
2022/04/17 02:20:57;;;;;;;;;21.75;10.00;;;;;-146.67;100.00;57155.34;5084385;27;61790;-79
2022/04/17 02:23:22;;;;;;;;;14.00;10.25;;;;;-146.67;100.00;57155.34;5084801;27;61758;-79
2022/04/17 02:25:48;;;;;;;;;13.75;10.25;;;;;-146.67;100.00;57155.34;5100972;27;61897;-79
2022/04/17 02:28:14;;;;;;;;;11.00;7.75;;;;;-146.67;100.00;57155.34;5083763;28;62257;-79
2022/04/17 02:30:40;;;;;;;;;12.00;9.75;;;;;-146.67;100.00;57155.34;5084599;27;62852;-79
2022/04/17 02:33:06;;;;;;;;;11.00;9.25;;;;;-146.67;100.00;57155.34;5083751;28;61707;-79
2022/04/17 02:35:31;;;;;;;;;5.25;5.25;;;;;-146.67;100.00;57155.34;5084569;27;61794;-79
2022/04/17 02:37:57;;;;;;;;;6.25;6.25;;;;;-146.67;100.00;57155.34;5083577;28;61796;-79
2022/04/17 02:40:23;;;;;;;;;7.00;7.00;;;;;-146.67;100.00;57155.34;5083721;27;62670;-79
2022/04/17 02:42:48;;;;;;;;;7.75;6.00;;;;;-146.67;100.00;57155.34;5084893;27;61798;-79
2022/04/17 02:45:14;;;;;;;;;6.00;6.00;;;;;-146.67;100.00;57155.34;5084716;27;61900;-79
2022/04/17 02:47:42;;;;;;;;;5.00;4.00;;;;;-146.67;100.00;57155.34;5084876;27;61793;-79
2022/04/17 02:50:08;;;;;;;;;11.25;7.00;;;;;-146.67;100.00;57155.34;5082463;28;63791;-79
2022/04/17 02:52:33;;;;;;;;;7.25;5.25;;;;;-146.67;100.00;57155.34;5083291;28;61876;-79
2022/04/17 02:55:00;;;;;;;;;5.50;5.50;;;;;-146.67;100.00;57155.34;5084666;27;62337;-79
2022/04/17 02:57:25;;;;;;;;;11.00;6.50;;;;;-146.67;100.00;57155.34;5100317;27;61747;-79
2022/04/17 02:59:51;;;;;;;;;6.25;3.00;;;;;-146.67;100.00;57155.34;5099631;27;64109;-79
2022/04/17 03:07:44;;;;;;;;;3.00;3.00;;;;;-146.67;100.00;57155.34;5083600;28;62121;-79
2022/04/17 03:10:11;;;;;;;;;5.75;4.50;;;;;-146.67;100.00;57155.34;5083662;27;62593;-79
2022/04/17 03:12:39;;;;;;;;;4.75;4.75;;;;;-146.67;100.00;57155.34;5084487;27;61868;-79
2022/04/17 03:15:06;;;;;;;;;5.75;4.75;;;;;-146.67;100.00;57155.34;5084517;27;61986;-79
2022/04/17 03:17:32;;;;;;;;;4.50;3.50;;;;;-146.67;100.00;57155.34;5084392;27;62003;-79
2022/04/17 03:19:58;;;;;;;;;1.00;1.00;;;;;-146.67;100.00;57155.34;5083693;27;61757;-79
2022/04/17 03:22:25;;;;;;;;;4.75;3.75;;;;;-146.67;100.00;57155.34;5084213;27;61915;-79
2022/04/17 03:24:51;;;;;;;;;4.00;3.00;;;;;-146.67;100.00;57155.34;5083910;27;61714;-79
2022/04/17 03:27:17;;;;;;;;;3.75;3.75;;;;;-146.67;100.00;57155.34;5084330;27;61955;-79
2022/04/17 03:29:42;;;;;;;;;4.00;4.00;;;;;-146.67;100.00;57155.34;5099125;27;63515;-79
2022/04/17 03:32:08;;;;;;;;;4.50;2.00;;;;;-146.67;100.00;57155.34;5084232;27;61630;-79
2022/04/17 03:34:33;;;;;;;;;5.00;5.00;;;;;-146.67;100.00;57155.34;5083835;27;61668;-79
2022/04/17 03:36:59;;;;;;;;;3.00;3.00;;;;;-146.67;100.00;57155.34;5084400;27;61726;-79
2022/04/17 03:39:25;;;;;;;;;4.50;3.25;;;;;-146.67;100.00;57155.34;5082635;28;62256;-79
2022/04/17 03:41:51;;;;;;;;;3.00;3.00;;;;;-146.67;100.00;57155.34;5084188;27;61973;-79
2022/04/17 03:44:17;;;;;;;;;3.75;3.75;;;;;-146.67;100.00;57155.34;5083937;27;62055;-79
2022/04/17 03:46:43;;;;;;;;;6.00;3.75;;;;;-146.67;100.00;57155.34;5084070;27;61942;-79
2022/04/17 03:49:09;;;;;;;;;4.50;4.50;;;;;-146.67;100.00;57155.34;5083229;28;61929;-79
2022/04/17 03:51:34;;;;;;;;;3.00;3.00;;;;;-146.67;100.00;57155.34;5082147;28;62137;-79
2022/04/17 03:53:59;;;;;;;;;3.50;2.25;;;;;-146.67;100.00;57155.34;5083950;27;61946;-79
2022/04/17 03:56:25;;;;;;;;;4.25;4.25;;;;;-146.67;100.00;57155.34;5083678;27;62163;-79
2022/04/17 03:58:50;;;;;;;;;6.75;4.00;;;;;-146.67;100.00;57155.34;5083105;27;61781;-79
2022/04/17 04:01:16;;;;;;;;;3.50;3.50;;;;;-146.67;100.00;57155.34;5083685;27;61715;-79
2022/04/17 04:03:41;;;;;;;;;4.50;3.00;;;;;-146.67;100.00;57155.34;5083200;27;61908;-79
2022/04/17 04:06:07;;;;;;;;;3.75;3.75;;;;;-146.67;100.00;57155.34;5083571;27;62173;-79
2022/04/17 04:08:32;;;;;;;;;3.00;3.00;;;;;-146.67;100.00;57155.34;5082506;28;62017;-79
2022/04/17 04:10:58;;;;;;;;;7.25;4.00;;;;;-146.67;100.00;57155.34;5083399;27;61751;-79
2022/04/17 04:13:23;;;;;;;;;4.75;4.00;;;;;-146.67;100.00;57155.34;5083614;27;61868;-79
2022/04/17 04:15:48;;;;;;;;;3.00;2.75;;;;;-146.67;100.00;57155.34;5082166;28;62140;-79
2022/04/17 04:18:14;;;;;;;;;3.00;3.00;;;;;-146.67;100.00;57155.34;5082330;27;61887;-79
2022/04/17 04:20:40;;;;;;;;;3.75;3.75;;;;;-146.67;100.00;57155.34;5083353;27;62307;-79
2022/04/17 04:23:05;;;;;;;;;5.00;3.00;;;;;-146.67;100.00;57155.34;5083463;28;61889;-79
2022/04/17 04:25:31;;;;;;;;;6.75;5.00;;;;;-146.67;100.00;57155.34;5082957;28;62131;-79
2022/04/17 04:30:40;;;;;;;;;6.00;5.25;;;;;-146.67;100.00;57155.34;5083151;28;62016;-79
2022/04/17 04:33:06;;;;;;;;;8.00;4.00;;;;;-146.67;100.00;57155.34;5083109;27;61932;-79
2022/04/17 04:35:33;;;;;;;;;6.00;3.00;;;;;-146.67;100.00;57155.34;5098920;27;61886;-79
2022/04/17 04:38:01;;;;;;;;;2.00;2.00;;;;;-146.67;100.00;57155.34;5084694;28;63844;-77
2022/04/17 04:40:29;;;;;;;;;3.25;3.25;;;;;-146.67;100.00;57155.34;5084209;27;61644;-78
2022/04/17 04:43:02;;;;;;;;;6.50;4.00;;;;;-146.67;100.00;57155.34;5083208;28;61969;-78
2022/04/17 04:48:12;;;;;;;;;3.00;3.00;;;;;-146.67;100.00;57155.34;5082038;28;61981;-78
2022/04/17 04:50:38;;;;;;;;;6.25;5.00;;;;;-146.67;100.00;57155.34;5082769;27;61655;-78
2022/04/17 04:53:03;;;;;;;;;5.25;3.25;;;;;-146.67;100.00;57155.34;5081374;28;62057;-78
2022/04/17 04:55:29;;;;;;;;;4.00;4.00;;;;;-146.67;100.00;57155.34;5083023;27;61738;-78
2022/04/17 04:57:55;;;;;;;;;2.00;2.00;;;;;-146.67;100.00;57155.34;5080752;28;63631;-78
2022/04/17 05:00:21;;;;;;;;;3.50;3.50;;;;;-146.67;100.00;57155.34;5082691;27;61856;-78
2022/04/17 05:02:46;;;;;;;;;4.00;4.00;;;;;-146.67;100.00;57155.34;5082595;27;62127;-78
2022/04/17 05:05:12;;;;;;;;;4.25;3.00;;;;;-146.67;100.00;57155.34;5081267;28;62061;-78
2022/04/17 05:07:38;;;;;;;;;7.25;4.00;;;;;-146.67;100.00;57155.34;5081963;27;62541;-78
2022/04/17 05:10:05;;;;;;;;;5.00;5.00;;;;;-146.67;100.00;57155.34;5082496;27;61828;-78
2022/04/17 05:12:31;;;;;;;;;4.75;4.75;;;;;-146.67;100.00;57155.34;5082447;27;61935;-78
2022/04/17 05:14:57;;;;;;;;;5.50;3.50;;;;;-146.67;100.00;57155.34;5081077;28;61766;-78
2022/04/17 05:17:22;;;;;;;;;5.00;3.50;;;;;-146.67;100.00;57155.34;5080630;28;63705;-78
2022/04/17 05:19:53;;;;;;;;;4.00;4.00;;;;;-146.67;100.00;57155.34;5080740;28;61762;-78
2022/04/17 05:22:22;;;;;;;;;6.50;3.00;;;;;-146.67;100.00;57155.34;5082694;27;62092;-78
2022/04/17 05:24:47;;;;;;;;;3.00;3.00;;;;;-146.67;100.00;57155.34;5082287;27;61823;-78
2022/04/17 05:27:13;;;;;;;;;2.75;2.75;;;;;-146.67;100.00;57155.34;5080479;28;63870;-78
2022/04/17 05:29:39;;;;;;;;;5.00;3.75;;;;;-146.67;100.00;57155.34;5081337;28;61885;-78
2022/04/17 05:32:05;;;;;;;;;4.75;4.00;;;;;-146.67;100.00;57155.34;5081841;27;61902;-78
2022/04/17 05:34:31;;;;;;;;;3.00;3.00;;;;;-146.67;100.00;57155.34;5082635;28;61809;-78
2022/04/17 05:36:56;;;;;;;;;3.00;2.00;;;;;-146.67;100.00;57155.34;5081591;27;62718;-78
2022/04/17 05:39:22;;;;;;;;;5.00;4.25;;;;;-146.67;100.00;57155.34;5081355;27;61831;-78
2022/04/17 05:41:48;;;;;;;;;4.00;2.50;;;;;-146.67;100.00;57155.34;5081968;27;61825;-78
2022/04/17 05:44:14;;;;;;;;;8.00;6.25;;;;;-146.67;100.00;57155.34;5082158;27;62010;-78
2022/04/17 05:46:41;;;;;;;;;3.75;3.75;;;;;-146.67;100.00;57155.34;5081508;28;61852;-78
2022/04/17 05:49:07;;;;;;;;;7.50;4.75;;;;;-146.67;100.00;57155.34;5082071;28;61688;-78
2022/04/17 05:51:34;;;;;;;;;4.00;3.00;;;;;-146.67;100.00;57155.34;5082148;27;62640;-78
2022/04/17 05:54:00;;;;;;;;;4.00;3.75;;;;;-146.67;100.00;57155.34;5082098;27;61800;-78
2022/04/17 05:56:27;;;;;;;;;5.75;3.25;;;;;-146.67;100.00;57155.34;5081475;27;61932;-78
2022/04/17 05:58:52;;;;;;;;;7.25;4.00;;;;;-146.67;100.00;57155.34;5080124;28;61774;-78
2022/04/17 06:01:18;;;;;;;;;3.00;3.00;;;;;-146.67;100.00;57155.34;5097783;27;61950;-78
2022/04/17 06:03:43;;;;;;;;;4.50;3.00;;;;;-146.67;100.00;57155.34;5082111;28;62046;-78
2022/04/17 06:06:09;;;;;;;;;4.00;4.00;;;;;-146.67;100.00;57155.34;5081093;27;62495;-78
2022/04/17 06:08:34;;;;;;;;;3.75;3.00;;;;;-146.67;100.00;57155.34;5081892;28;61899;-78
2022/04/17 06:11:01;;;;;;;;;5.50;5.00;;;;;-146.67;100.00;57155.34;5081579;28;61844;-78
2022/04/17 06:13:26;;;;;;;;;7.75;5.00;;;;;-146.67;100.00;57155.34;5081792;27;61785;-78
2022/04/17 06:15:51;;;;;;;;;5.50;4.00;;;;;-146.67;100.00;57155.34;5081072;28;61825;-78
2022/04/17 06:18:17;;;;;;;;;8.00;5.00;;;;;-146.67;100.00;57155.34;5082043;27;62023;-78
2022/04/17 06:20:42;;;;;;;;;6.50;4.00;;;;;-146.67;100.00;57155.34;5081906;27;61956;-78
2022/04/17 06:23:08;;;;;;;;;4.25;4.25;;;;;-146.67;100.00;57155.34;5081792;27;62158;-78
2022/04/17 06:25:33;;;;;;;;;5.00;4.00;;;;;-146.67;100.00;57155.34;5079430;28;63691;-78
2022/04/17 06:27:59;;;;;;;;;8.75;6.50;;;;;-146.67;100.00;57155.34;5080062;28;61768;-77
2022/04/17 06:30:25;;;;;;;;;5.00;4.50;;;;;-146.67;100.00;57155.34;5097471;27;61784;-78
2022/04/17 06:32:50;;;;;;;;;4.00;4.00;;;;;-146.67;100.00;57155.34;5080416;28;62040;-77
2022/04/17 06:35:17;;;;;;;;;5.00;5.00;;;;;-146.67;100.00;57155.34;5079614;28;63426;-78
2022/04/17 06:37:56;;;;;;;;;5.00;4.00;;;;;-146.67;100.00;57155.34;5081515;27;61814;-78
2022/04/17 06:40:24;;;;;;;;;6.50;4.00;;;;;-146.67;100.00;57155.34;5086805;27;61761;-78
2022/04/17 06:42:52;;;;;;;;;4.25;4.25;;;;;-146.67;100.00;57155.34;5082638;27;61958;-78
2022/04/17 06:45:18;;;;;;;;;4.25;3.25;;;;;-146.67;100.00;57155.34;5084591;27;61838;-78
2022/04/17 06:47:44;;;;;;;;;3.50;3.50;;;;;-146.67;100.00;57155.34;5085042;27;61880;-78
2022/04/17 06:50:10;;;;;;;;;4.50;4.50;;;;;-146.67;100.00;57155.34;5084730;27;62025;-78
2022/04/17 06:52:36;;;;;;;;;5.50;4.00;;;;;-146.67;100.00;57155.34;5085281;27;61832;-79
2022/04/17 06:55:03;;;;;;;;;5.25;5.25;;;;;-146.67;100.00;57155.34;5083745;28;62866;-78
2022/04/17 06:57:30;;;;;;;;;6.50;5.25;;;;;-146.67;100.00;57155.34;5084563;27;61738;-78
2022/04/17 06:59:57;;;;;;;;;6.25;5.00;;;;;-146.67;100.00;57155.34;5084852;27;62110;-78
2022/04/17 07:02:22;;;;;;;;;5.50;4.00;;;;;-146.67;100.00;57155.34;5084930;27;61804;-78
2022/04/17 07:04:47;;;;;;;;;5.50;5.50;;;;;-146.67;100.00;57155.34;5083735;27;62600;-78
2022/04/17 07:07:13;;;;;;;;;3.75;3.75;;;;;-146.67;100.00;57155.34;5100223;27;61926;-78
2022/04/17 07:09:38;;;;;;;;;10.00;5.00;;;;;-146.67;100.00;57155.34;5084340;27;61905;-78
2022/04/17 07:12:04;;;;;;;;;5.75;4.25;;;;;-146.67;100.00;57155.34;5099969;27;62067;-78
2022/04/17 07:14:30;;;;;;;;;5.00;4.75;;;;;-146.67;100.00;57155.34;5084076;27;62767;-78
2022/04/17 07:16:55;;;;;;;;;5.00;5.00;;;;;-146.67;100.00;57155.34;5100008;27;61851;-78
2022/04/17 07:19:20;;;;;;;;;5.00;5.00;;;;;-146.67;100.00;57155.34;5084674;27;61848;-79
2022/04/17 07:21:46;;;;;;;;;4.00;4.00;;;;;-146.67;100.00;57155.34;5084709;27;62202;-79
2022/04/17 07:24:12;;;;;;;;;7.00;5.00;;;;;-146.67;100.00;57155.34;5098963;27;63644;-79
2022/04/17 07:26:37;;;;;;;;;7.25;5.50;;;;;-146.67;100.00;57155.34;5084267;28;61856;-79
2022/04/17 07:29:03;;;;;;;;;5.25;4.00;;;;;-146.67;100.00;57155.34;5084091;27;61839;-79
2022/04/17 07:31:29;;;;;;;;;13.00;4.00;;;;;-146.67;100.00;57155.34;5084608;28;61866;-79
2022/04/17 07:33:54;;;;;;;;;7.00;5.75;;;;;-146.67;100.00;57155.34;5083872;28;61778;-79
2022/04/17 07:36:20;;;;;;;;;8.25;5.00;;;;;-146.67;100.00;57155.34;5085861;27;62015;-79
2022/04/17 07:38:46;;;;;;;;;4.25;4.25;;;;;-146.67;100.00;57155.34;5082427;27;61961;-78
2022/04/17 07:41:11;;;;;;;;;6.25;5.00;;;;;-146.67;100.00;57155.34;5081163;28;61880;-79
2022/04/17 07:43:37;;;;;;;;;5.00;5.00;;;;;-146.67;100.00;57155.34;5082090;27;62823;-79
2022/04/17 07:46:02;;;;;;;;;8.50;6.00;;;;;-146.67;100.00;57155.34;5082636;28;61832;-79
2022/04/17 07:48:27;;;;;;;;;6.50;5.00;;;;;-146.67;100.00;57155.34;5099576;27;61923;-78
2022/04/17 07:50:54;;;;;;;;;3.25;3.00;;;;;-146.67;100.00;57155.34;5084022;27;61715;-78
2022/04/17 07:53:20;;;;;;;;;7.00;5.00;;;;;-146.67;100.00;57155.34;5082633;27;61679;-79
2022/04/17 07:55:46;;;;;;;;;4.50;4.50;;;;;-146.67;100.00;57155.34;5098982;27;61856;-78
2022/04/17 07:58:23;;;;;;;;;7.25;7.25;;;;;-146.67;100.00;57155.34;5083758;27;61818;-78
2022/04/17 08:00:57;;;;;;;;;8.00;5.00;;;;;-146.67;100.00;57155.34;5082513;28;61932;-79
2022/04/17 08:03:34;;;;;;;;;5.75;4.75;;;;;-146.67;100.00;57155.34;5082873;27;61840;-78
2022/04/17 08:06:07;;;;;;;;;9.50;8.00;;;;;-146.67;100.00;57155.34;5083401;27;62066;-78
2022/04/17 08:08:37;;;;;;;;;5.00;5.00;;;;;-146.67;100.00;57155.34;5083439;28;61838;-76
2022/04/17 08:11:04;;;;;;;;;4.25;4.25;;;;;-146.67;100.00;57155.34;5083286;27;61885;-77
2022/04/17 08:13:30;;;;;;;;;8.50;3.75;;;;;-146.67;100.00;57155.34;5081352;28;64009;-77
2022/04/17 08:15:56;;;;;;;;;11.50;6.00;;;;;-146.67;100.00;57155.34;5082299;28;61860;-78
2022/04/17 08:18:21;;;;;;;;;3.75;3.75;;;;;-146.67;100.00;57155.34;5083411;28;61817;-82
2022/04/17 08:20:47;;;;;;;;;8.00;8.00;;;;;-146.67;100.00;57155.34;5083666;27;61914;-83
2022/04/17 08:23:18;;;;;;;;;9.25;5.50;;;;;-146.67;100.00;57155.34;5082266;27;61963;-83
2022/04/17 08:25:44;;;;;;;;;8.50;6.00;;;;;-146.67;100.00;57155.34;5080352;28;62232;-84
2022/04/17 08:28:09;;;;;;;;;4.75;4.75;;;;;-146.67;100.00;57155.34;5082863;27;61818;-84
2022/04/17 08:30:35;;;;;;;;;6.00;5.00;;;;;-146.67;100.00;57155.34;5083914;27;62008;-85
2022/04/17 08:33:04;;;;;;;;;9.00;5.00;;;;;-146.67;100.00;57155.34;5098916;27;64203;-85
2022/04/17 08:35:30;;;;;;;;;6.25;6.00;;;;;-146.67;100.00;57155.34;5083340;27;61876;-85
2022/04/17 08:38:02;;;;;;;;;9.00;5.00;;;;;-146.67;100.00;57155.34;5082713;27;61950;-85
2022/04/17 08:40:29;;;;;;;;;6.50;5.00;;;;;-146.67;100.00;57155.34;5082126;28;61849;-84
2022/04/17 08:42:56;;;;;;;;;4.50;4.50;;;;;-146.67;100.00;57155.34;5081828;27;62981;-84
2022/04/17 08:45:23;;;;;;;;;7.00;7.00;;;;;-146.67;100.00;57155.34;5081999;28;61983;-84
2022/04/17 08:47:50;;;;;;;;;4.75;4.00;;;;;-146.67;100.00;57155.34;5081118;28;61994;-79
2022/04/17 08:50:18;;;;;;;;;6.75;5.75;;;;;-146.67;100.00;57155.34;5082794;27;62124;-83
2022/04/17 08:52:49;;;;;;;;;11.25;4.25;;;;;-146.67;100.00;57155.34;5094139;27;64077;-78
2022/04/17 08:55:15;;;;;;;;;7.25;4.75;;;;;-146.67;100.00;57155.34;5082316;27;61910;-78
2022/04/17 08:57:41;;;;;;;;;5.50;3.75;;;;;-146.67;100.00;57155.34;5082921;27;62134;-78
2022/04/17 09:00:10;;;;;;;;;5.00;5.00;;;;;-146.67;100.00;57155.34;5081624;28;61911;-78
2022/04/17 09:02:36;;;;;;;;;6.50;5.00;;;;;-146.67;100.00;57155.34;5080791;28;63120;-78
2022/04/17 09:05:06;;;;;;;;;4.00;4.00;;;;;-146.67;100.00;57155.34;5081604;27;62367;-79
2022/04/17 09:07:43;;;;;;;;;5.25;4.25;;;;;-146.67;100.00;57155.34;5082376;27;61778;-78
2022/04/17 09:10:09;;;;;;;;;4.25;4.25;;;;;-146.67;100.00;57155.34;5082690;28;62119;-78
2022/04/17 09:12:35;;;;;;;;;3.00;3.00;;;;;-146.67;100.00;57155.34;5082009;27;62686;-78
2022/04/17 09:15:01;;;;;;;;;6.50;4.25;;;;;-146.67;100.00;57155.34;5082714;27;61714;-78
2022/04/17 09:17:31;;;;;;;;;4.00;3.00;;;;;-146.67;100.00;57155.34;5082288;27;61767;-78
2022/04/17 09:19:57;;;;;;;;;5.25;4.50;;;;;-146.67;100.00;57155.34;5081447;28;61936;-78
2022/04/17 09:22:22;;;;;;;;;3.75;3.00;;;;;-146.67;100.00;57155.34;5081544;28;62128;-78
2022/04/17 09:24:48;;;;;;;;;4.00;4.00;;;;;-146.67;100.00;57155.34;5080594;28;61803;-77
2022/04/17 09:27:13;;;;;;;;;2.75;2.50;;;;;-146.67;100.00;57155.34;5082523;27;61768;-76
2022/04/17 09:29:39;;;;;;;;;3.00;3.00;;;;;-146.67;100.00;57155.34;5082403;27;61701;-78
2022/04/17 09:32:09;;;;;;;;;4.00;4.00;;;;;-146.67;100.00;57155.34;5080400;28;63669;-78
2022/04/17 09:34:50;;;;;;;;;4.25;3.00;;;;;-146.67;100.00;57155.34;5082258;27;61972;-76
2022/04/17 09:37:20;;;;;;;;;3.25;3.25;;;;;-146.67;100.00;57155.34;5080917;28;61739;-76
2022/04/17 09:39:47;;;;;;;;;2.50;2.00;;;;;-146.67;100.00;57155.34;5081750;28;61770;-78
2022/04/17 09:42:19;;;;;;;;;5.00;3.25;;;;;-146.67;100.00;57155.34;5081606;28;61847;-78
2022/04/17 09:44:46;;;;;;;;;5.50;3.00;;;;;-146.67;100.00;57155.34;5082201;27;61988;-78
2022/04/17 09:47:23;;;;;;;;;3.75;3.00;;;;;-146.67;100.00;57155.34;5082251;27;61889;-78
2022/04/17 09:49:59;;;;;;;;;1.00;1.00;;;;;-146.67;100.00;57155.34;5082396;27;61900;-78
2022/04/17 09:52:40;;;;;;;;;3.75;3.00;;;;;-146.67;100.00;57155.34;5081184;28;62082;-78
2022/04/17 09:55:06;;;;;;;;;4.00;2.00;;;;;-146.67;100.00;57155.34;5081968;27;61952;-78
2022/04/17 09:57:33;;;;;;;;;5.50;4.75;;;;;-146.67;100.00;57155.34;5081902;28;61718;-77
2022/04/17 10:00:25;;;;;;;;;3.25;3.25;;;;;-146.67;100.00;57155.34;5082457;27;61843;-76
2022/04/17 10:02:50;;;;;;;;;4.00;4.00;;;;;-146.67;100.00;57155.34;5080429;27;62379;-76
2022/04/17 10:05:18;;;;;;;;;5.50;4.00;;;;;-146.67;100.00;57155.34;5081096;27;61987;-77
2022/04/17 10:07:49;;;;;;;;;4.00;4.00;;;;;-146.67;100.00;57155.34;5081433;27;61620;-77
2022/04/17 10:10:16;;;;;;;;;2.00;2.00;;;;;-146.67;100.00;57155.34;5082037;28;61927;-77
2022/04/17 10:12:46;;;;;;;;;7.25;2.00;;;;;-146.67;100.00;57155.34;5081056;27;61792;-77
2022/04/17 10:15:12;;;;;;;;;3.00;3.00;;;;;-146.67;100.00;57155.34;5080424;28;61711;-78
2022/04/17 10:17:39;;;;;;;;;4.50;4.00;;;;;-146.67;100.00;57155.34;5083908;27;61825;-77
2022/04/17 10:20:06;;;;;;;;;3.75;3.75;;;;;-146.67;100.00;57155.34;5085483;27;61857;-78
2022/04/17 10:22:34;;;;;;;;;2.25;2.25;;;;;-146.67;100.00;57155.34;5083047;28;63607;-81
2022/04/17 10:25:02;;;;;;;;;5.50;5.00;;;;;-146.67;100.00;57155.34;5084295;27;61945;-78
2022/04/17 10:27:35;;;;;;;;;4.50;3.00;;;;;-146.67;100.00;57155.34;5084715;27;61972;-79
2022/04/17 10:30:07;;;;;;;;;3.75;3.75;;;;;-146.67;100.00;57155.34;5084860;28;61774;-78
2022/04/17 10:32:33;;;;;;;;;6.50;5.00;;;;;-146.67;100.00;57155.34;5099237;27;64998;-78
2022/04/17 10:35:17;;;;;;;;;7.75;7.00;;;;;-146.67;100.00;57155.34;5084510;28;61940;-79
2022/04/17 10:37:46;;;;;;;;;6.50;5.50;;;;;-146.67;100.00;57155.34;5100553;27;61997;-77
2022/04/17 10:40:12;;;;;;;;;4.25;4.25;;;;;-146.67;100.00;57155.34;5079628;28;61765;-79
2022/04/17 10:42:58;;;;;;;;;4.50;3.50;;;;;-146.67;100.00;57155.34;5083013;28;64280;-80
2022/04/17 10:45:25;;;;;;;;;4.50;3.00;;;;;-146.67;100.00;57155.34;5083554;28;61912;-78
2022/04/17 10:48:05;;;;;;;;;3.00;3.00;;;;;-146.67;100.00;57155.34;5084766;27;61705;-78
2022/04/17 10:50:40;;;;;;;;;4.50;3.00;;;;;-146.67;100.00;57155.34;5084430;27;62019;-81
2022/04/17 10:53:29;;;;;;;;;4.00;3.00;;;;;-146.67;100.00;57155.34;5097789;27;64055;-78
2022/04/17 10:56:08;;;;;;;;;7.75;4.75;;;;;-146.67;100.00;57155.34;5083630;28;61908;-76
2022/04/17 10:58:40;;;;;;;;;4.00;4.00;;;;;-146.67;100.00;57155.34;5084880;27;61742;-78
2022/04/17 11:01:06;;;;;;;;;4.50;2.00;;;;;-146.67;100.00;57155.34;5084289;27;61881;-77
2022/04/17 11:03:34;;;;;;;;;3.00;3.00;;;;;-146.67;100.00;57155.34;5083260;27;61910;-76
2022/04/17 11:06:31;;;;;;;;;3.75;3.75;;;;;-146.67;100.00;57155.34;5084557;27;62005;-75
2022/04/17 11:09:24;;;;;;;;;2.75;2.75;;;;;-146.67;100.00;57155.34;5083814;27;61810;-76
2022/04/17 11:11:51;;;;;;;;;5.25;4.75;;;;;-146.67;100.00;57155.34;5082863;28;62612;-76
2022/04/17 11:14:24;;;;;;;;;2.00;2.00;;;;;-146.67;100.00;57155.34;5083842;27;61795;-75
2022/04/17 11:16:54;;;;;;;;;3.75;3.50;;;;;-146.67;100.00;57155.34;5083911;27;61757;-75
2022/04/17 11:19:24;;;;;;;;;3.75;3.00;;;;;-146.67;100.00;57155.34;5084310;27;62100;-75
2022/04/17 11:21:53;;;;;;;;;2.75;2.00;;;;;-146.67;100.00;57155.34;5084621;27;61823;-75